Time;durP1;ratioP1;P1;durP2;ratioP2;P2;SDS_P1;SDS_P2;PMS_P1;PMS_P2;Temp;Humidity;BMP_temperature;BMP_pressure;BME280_temperature;BME280_humidity;BME280_pressure;Samples;Min_cycle;Max_cycle;Signal;HPM_P1;HPM_P2
2023/06/08 00:01:57;;;;;;;;;;;11.30;62.80;;;;;;4174824;28;20417;-83
2023/06/08 00:04:17;;;;;;;;;;;11.30;61.80;;;;;;4174411;28;19917;-85
2023/06/08 00:06:40;;;;;;;;;;;11.30;62.30;;;;;;4161687;28;19924;-84
2023/06/08 00:09:01;;;;;;;;;;;11.30;62.20;;;;;;4161860;28;20031;-84
2023/06/08 00:11:25;;;;;;;;;;;11.40;62.40;;;;;;4162472;28;20000;-83
2023/06/08 00:13:46;;;;;;;;;;;11.30;61.90;;;;;;4173652;28;20497;-84
2023/06/08 00:16:07;;;;;;;;;;;11.30;61.70;;;;;;4170774;28;19912;-84
2023/06/08 00:18:30;;;;;;;;;;;11.50;62.40;;;;;;4176763;28;20011;-85
2023/06/08 00:20:51;;;;;;;;;;;11.40;62.20;;;;;;4160578;28;20743;-86
2023/06/08 00:23:12;;;;;;;;;;;11.30;62.60;;;;;;4179898;28;19935;-86
2023/06/08 00:25:33;;;;;;;;;;;11.40;62.40;;;;;;4189943;28;20098;-88
2023/06/08 00:27:54;;;;;;;;;;;11.30;62.20;;;;;;4185492;28;19917;-89
2023/06/08 00:30:15;;;;;;;;;;;11.40;62.20;;;;;;4162862;28;19944;-86
2023/06/08 00:32:36;;;;;;;;;;;11.40;63.90;;;;;;4174097;28;19917;-87
2023/06/08 00:34:56;;;;;;;;;;;11.50;63.20;;;;;;4158292;28;19921;-86
2023/06/08 00:37:17;;;;;;;;;;;11.40;62.60;;;;;;4176825;28;19924;-84
2023/06/08 00:39:38;;;;;;;;;;;11.40;62.20;;;;;;4176307;28;19928;-87
2023/06/08 00:41:59;;;;;;;;;;;11.50;62.40;;;;;;4174928;28;20976;-85
2023/06/08 00:44:20;;;;;;;;;;;11.40;62.60;;;;;;4161514;28;19925;-85
2023/06/08 00:46:41;;;;;;;;;;;11.30;62.90;;;;;;4174524;28;19912;-85
2023/06/08 00:49:02;;;;;;;;;;;11.40;62.70;;;;;;4181246;28;19919;-85
2023/06/08 00:51:25;;;;;;;;;;;11.40;62.60;;;;;;4177732;28;19913;-85
2023/06/08 00:53:46;;;;;;;;;;;11.40;62.90;;;;;;4161493;28;19913;-85
2023/06/08 00:56:07;;;;;;;;;;;11.40;62.60;;;;;;4164065;28;19925;-84
2023/06/08 00:58:28;;;;;;;;;;;11.40;63.30;;;;;;4165251;28;19992;-84
2023/06/08 01:00:50;;;;;;;;;;;11.40;63.10;;;;;;4160585;28;20447;-87
2023/06/08 01:03:11;;;;;;;;;;;11.40;63.50;;;;;;4177051;28;19912;-84
2023/06/08 01:05:33;;;;;;;;;;;11.30;63.50;;;;;;4164928;28;20003;-85
2023/06/08 01:08:10;;;;;;;;;;;11.40;63.30;;;;;;4177115;28;20613;-86
2023/06/08 01:10:36;;;;;;;;;;;11.40;63.60;;;;;;4176572;28;19917;-84
2023/06/08 01:13:02;;;;;;;;;;;11.50;63.20;;;;;;4177104;28;19921;-85
2023/06/08 01:15:30;;;;;;;;;;;11.40;63.20;;;;;;4161773;28;19917;-84
2023/06/08 01:17:53;;;;;;;;;;;11.40;63.60;;;;;;4175762;28;19917;-84
2023/06/08 01:20:14;;;;;;;;;;;11.40;63.10;;;;;;4177226;28;20817;-86
2023/06/08 01:22:46;;;;;;;;;;;11.40;63.40;;;;;;4158384;28;19928;-85
2023/06/08 01:25:10;;;;;;;;;;;11.40;63.10;;;;;;4176350;28;20325;-85
2023/06/08 01:27:36;;;;;;;;;;;11.40;62.80;;;;;;4177409;28;19919;-86
2023/06/08 01:29:57;;;;;;;;;;;11.40;62.50;;;;;;4162827;28;20311;-85
2023/06/08 01:32:21;;;;;;;;;;;11.40;62.60;;;;;;4172167;28;21084;-83
2023/06/08 01:34:42;;;;;;;;;;;11.40;62.80;;;;;;4173523;28;20377;-83
2023/06/08 01:37:03;;;;;;;;;;;11.40;62.90;;;;;;4178704;28;20054;-85
2023/06/08 01:39:26;;;;;;;;;;;11.40;63.40;;;;;;4179859;28;19913;-85
2023/06/08 01:41:49;;;;;;;;;;;11.40;62.80;;;;;;4174481;28;19985;-86
2023/06/08 01:44:13;;;;;;;;;;;11.40;63.00;;;;;;4174659;28;19951;-84
2023/06/08 01:46:34;;;;;;;;;;;11.50;63.20;;;;;;4174543;28;19955;-86
2023/06/08 01:48:58;;;;;;;;;;;11.40;63.30;;;;;;4172971;28;19939;-85
2023/06/08 01:51:19;;;;;;;;;;;11.40;63.50;;;;;;4171985;28;19932;-83
2023/06/08 01:53:40;;;;;;;;;;;11.30;63.40;;;;;;4161910;28;19913;-86
2023/06/08 01:56:01;;;;;;;;;;;11.40;63.10;;;;;;4164093;28;20059;-85
2023/06/08 01:58:25;;;;;;;;;;;11.40;62.90;;;;;;4165608;28;19917;-84
2023/06/08 02:00:46;;;;;;;;;;;11.30;63.10;;;;;;4178001;28;19916;-85
2023/06/08 02:03:07;;;;;;;;;;;11.40;63.40;;;;;;4174547;28;19921;-85
2023/06/08 02:05:28;;;;;;;;;;;11.40;63.70;;;;;;4158939;28;19913;-84
2023/06/08 02:07:48;;;;;;;;;;;11.30;63.70;;;;;;4161776;28;19917;-84
2023/06/08 02:10:10;;;;;;;;;;;11.30;63.50;;;;;;4175844;28;19912;-85
2023/06/08 02:12:31;;;;;;;;;;;11.20;63.40;;;;;;4176405;28;19927;-84
2023/06/08 02:14:52;;;;;;;;;;;11.30;63.40;;;;;;4170976;28;19960;-86
2023/06/08 02:17:18;;;;;;;;;;;11.20;63.10;;;;;;4176066;28;20005;-85
2023/06/08 02:19:39;;;;;;;;;;;11.20;63.50;;;;;;4163475;28;20039;-85
2023/06/08 02:22:00;;;;;;;;;;;11.20;64.20;;;;;;4174562;28;19966;-86
2023/06/08 02:24:21;;;;;;;;;;;11.20;64.60;;;;;;4162039;28;19914;-84
2023/06/08 02:26:42;;;;;;;;;;;11.20;64.20;;;;;;4173562;28;19995;-84
2023/06/08 02:29:03;;;;;;;;;;;11.10;63.90;;;;;;4164859;28;19914;-85
2023/06/08 02:31:26;;;;;;;;;;;11.30;64.20;;;;;;4174223;28;19916;-84
2023/06/08 02:33:47;;;;;;;;;;;11.10;64.80;;;;;;4175143;28;19913;-83
2023/06/08 02:36:09;;;;;;;;;;;11.10;64.50;;;;;;4160627;28;19986;-84
2023/06/08 02:38:30;;;;;;;;;;;11.10;63.90;;;;;;4175117;28;19917;-84
2023/06/08 02:40:51;;;;;;;;;;;11.10;63.70;;;;;;4177231;28;19916;-84
2023/06/08 02:43:12;;;;;;;;;;;11.10;63.70;;;;;;4173811;28;19963;-84
2023/06/08 02:45:33;;;;;;;;;;;11.10;64.00;;;;;;4177178;28;19916;-85
2023/06/08 02:47:54;;;;;;;;;;;11.00;64.30;;;;;;4172622;28;19913;-84
2023/06/08 02:50:15;;;;;;;;;;;11.00;65.00;;;;;;4165036;28;19924;-84
2023/06/08 02:52:36;;;;;;;;;;;11.00;65.00;;;;;;4172299;28;19920;-85
2023/06/08 02:54:57;;;;;;;;;;;11.10;65.30;;;;;;4173003;28;20453;-86
2023/06/08 02:57:17;;;;;;;;;;;11.10;65.30;;;;;;4162643;28;19955;-85
2023/06/08 02:59:38;;;;;;;;;;;11.00;65.50;;;;;;4178379;28;19966;-84
2023/06/08 03:01:59;;;;;;;;;;;11.00;65.30;;;;;;4174476;28;19913;-85
2023/06/08 03:04:21;;;;;;;;;;;11.00;65.50;;;;;;4155573;28;20367;-85
2023/06/08 03:06:42;;;;;;;;;;;11.00;65.30;;;;;;4170919;28;19978;-85
2023/06/08 03:09:04;;;;;;;;;;;11.00;65.20;;;;;;4161290;28;19921;-85
2023/06/08 03:11:25;;;;;;;;;;;11.00;65.20;;;;;;4175583;28;20349;-85
2023/06/08 03:13:47;;;;;;;;;;;11.00;65.70;;;;;;4176914;28;20062;-85
2023/06/08 03:16:07;;;;;;;;;;;11.00;65.60;;;;;;4174037;28;19921;-85
2023/06/08 03:18:28;;;;;;;;;;;11.10;66.10;;;;;;4176444;28;19940;-86
2023/06/08 03:20:51;;;;;;;;;;;11.00;65.90;;;;;;4169294;28;19921;-85
2023/06/08 03:23:12;;;;;;;;;;;11.00;66.00;;;;;;4170519;28;19913;-86
2023/06/08 03:25:36;;;;;;;;;;;11.00;66.60;;;;;;4176260;28;19917;-85
2023/06/08 03:27:57;;;;;;;;;;;11.10;66.30;;;;;;4179255;28;19935;-85
2023/06/08 03:30:18;;;;;;;;;;;11.00;65.50;;;;;;4177826;28;19912;-85
2023/06/08 03:32:39;;;;;;;;;;;11.10;65.60;;;;;;4163888;28;20289;-85
2023/06/08 03:34:59;;;;;;;;;;;11.00;65.60;;;;;;4160935;28;19917;-86
2023/06/08 03:37:20;;;;;;;;;;;11.00;65.60;;;;;;4177947;28;19954;-85
2023/06/08 03:39:41;;;;;;;;;;;11.00;65.20;;;;;;4173465;28;19960;-85
2023/06/08 03:42:02;;;;;;;;;;;11.00;65.10;;;;;;4177497;28;20365;-85
2023/06/08 03:44:23;;;;;;;;;;;11.00;64.40;;;;;;4164551;28;19970;-86
2023/06/08 03:46:45;;;;;;;;;;;11.00;64.70;;;;;;4158435;28;20027;-85
2023/06/08 03:49:05;;;;;;;;;;;10.90;64.50;;;;;;4169951;28;19925;-85
2023/06/08 03:51:26;;;;;;;;;;;10.90;64.40;;;;;;4161252;28;20298;-85
2023/06/08 03:53:47;;;;;;;;;;;10.90;64.60;;;;;;4174757;28;19912;-84
2023/06/08 03:56:08;;;;;;;;;;;10.90;64.70;;;;;;4166121;28;19948;-85
2023/06/08 03:58:29;;;;;;;;;;;10.90;64.70;;;;;;4179769;28;19966;-86
2023/06/08 04:00:53;;;;;;;;;;;10.80;64.50;;;;;;4177930;28;19948;-85
2023/06/08 04:03:14;;;;;;;;;;;10.80;64.80;;;;;;4177561;28;19919;-84
2023/06/08 04:05:36;;;;;;;;;;;10.70;64.90;;;;;;4165083;28;19943;-82
2023/06/08 04:07:58;;;;;;;;;;;10.70;65.00;;;;;;4163198;28;20381;-84
2023/06/08 04:10:18;;;;;;;;;;;10.70;65.10;;;;;;4181237;28;19913;-82
2023/06/08 04:12:51;;;;;;;;;;;10.70;65.00;;;;;;4180554;28;19938;-84
2023/06/08 04:15:12;;;;;;;;;;;10.70;65.10;;;;;;4174961;28;19986;-86
2023/06/08 04:17:33;;;;;;;;;;;10.60;65.00;;;;;;4177654;28;19912;-84
2023/06/08 04:19:54;;;;;;;;;;;10.60;65.20;;;;;;4165680;28;19921;-85
2023/06/08 04:22:15;;;;;;;;;;;10.60;65.20;;;;;;4166416;28;19920;-84
2023/06/08 04:24:38;;;;;;;;;;;10.60;65.10;;;;;;4164557;28;20019;-84
2023/06/08 04:26:59;;;;;;;;;;;10.50;65.50;;;;;;4175476;28;19960;-85
2023/06/08 04:29:20;;;;;;;;;;;10.50;65.80;;;;;;4158271;28;20411;-84
2023/06/08 04:31:41;;;;;;;;;;;10.50;66.50;;;;;;4158243;28;20494;-84
2023/06/08 04:34:01;;;;;;;;;;;10.50;66.70;;;;;;4162410;28;19921;-83
2023/06/08 04:36:22;;;;;;;;;;;10.60;66.90;;;;;;4175732;28;19913;-85
2023/06/08 04:38:43;;;;;;;;;;;10.50;67.00;;;;;;4174091;28;19924;-84
2023/06/08 04:41:07;;;;;;;;;;;10.60;67.10;;;;;;4164316;28;19968;-85
2023/06/08 04:43:30;;;;;;;;;;;10.50;66.90;;;;;;4175308;28;19964;-85
2023/06/08 04:45:59;;;;;;;;;;;10.60;67.10;;;;;;4176471;28;19913;-84
2023/06/08 04:48:20;;;;;;;;;;;10.60;66.50;;;;;;4175590;28;19932;-84
2023/06/08 04:50:45;;;;;;;;;;;10.60;66.70;;;;;;4179580;28;19970;-84
2023/06/08 04:53:10;;;;;;;;;;;10.60;67.10;;;;;;4163160;28;19973;-84
2023/06/08 04:55:31;;;;;;;;;;;10.60;67.40;;;;;;4175680;28;19954;-84
2023/06/08 04:57:51;;;;;;;;;;;10.70;67.80;;;;;;4177138;28;19919;-84
2023/06/08 05:00:13;;;;;;;;;;;10.70;67.90;;;;;;4178408;28;19917;-85
2023/06/08 05:02:33;;;;;;;;;;;10.70;67.60;;;;;;4172359;28;19943;-84
2023/06/08 05:04:54;;;;;;;;;;;10.70;67.40;;;;;;4168586;28;20651;-84
2023/06/08 05:07:15;;;;;;;;;;;10.70;67.10;;;;;;4162223;28;19929;-84
2023/06/08 05:09:36;;;;;;;;;;;10.80;67.10;;;;;;4164365;28;19917;-84
2023/06/08 05:11:57;;;;;;;;;;;10.90;66.90;;;;;;4173427;28;19935;-85
2023/06/08 05:14:18;;;;;;;;;;;10.80;66.50;;;;;;4161241;28;20469;-85
2023/06/08 05:16:38;;;;;;;;;;;10.90;66.50;;;;;;4166857;28;20346;-83
2023/06/08 05:18:59;;;;;;;;;;;10.80;66.40;;;;;;4176576;28;20583;-85
2023/06/08 05:21:20;;;;;;;;;;;10.80;66.70;;;;;;4165954;28;20012;-82
2023/06/08 05:23:41;;;;;;;;;;;11.00;67.10;;;;;;4176813;28;19952;-83
2023/06/08 05:26:02;;;;;;;;;;;10.90;67.00;;;;;;4171252;28;19923;-85
2023/06/08 05:28:22;;;;;;;;;;;10.90;66.90;;;;;;4166967;28;19921;-85
2023/06/08 05:30:43;;;;;;;;;;;10.90;67.30;;;;;;4156183;28;20011;-86
2023/06/08 05:33:04;;;;;;;;;;;10.90;67.80;;;;;;4157620;28;19921;-85
2023/06/08 05:35:26;;;;;;;;;;;10.90;67.30;;;;;;4156104;28;19924;-84
2023/06/08 05:37:47;;;;;;;;;;;11.00;67.20;;;;;;4171305;28;19917;-85
2023/06/08 05:40:09;;;;;;;;;;;10.90;67.20;;;;;;4158766;28;19921;-85
2023/06/08 05:42:37;;;;;;;;;;;10.90;66.90;;;;;;4163653;28;19921;-86
2023/06/08 05:44:58;;;;;;;;;;;10.90;67.00;;;;;;4167465;28;19920;-85
2023/06/08 05:47:19;;;;;;;;;;;11.00;67.20;;;;;;4162099;28;19921;-86
2023/06/08 05:49:40;;;;;;;;;;;10.90;67.50;;;;;;4152832;28;20079;-85
2023/06/08 05:52:03;;;;;;;;;;;10.90;68.30;;;;;;4170783;28;20388;-85
2023/06/08 05:54:24;;;;;;;;;;;11.00;67.60;;;;;;4168089;28;19917;-84
2023/06/08 05:56:50;;;;;;;;;;;11.10;67.90;;;;;;4170853;28;20373;-84
2023/06/08 05:59:10;;;;;;;;;;;11.00;68.00;;;;;;4171126;28;20467;-85
2023/06/08 06:01:34;;;;;;;;;;;11.10;67.90;;;;;;4173401;28;19920;-85
2023/06/08 06:03:54;;;;;;;;;;;11.00;68.20;;;;;;4156862;28;19971;-85
2023/06/08 06:06:16;;;;;;;;;;;11.00;68.10;;;;;;4157752;28;19917;-84
2023/06/08 06:08:44;;;;;;;;;;;11.00;68.10;;;;;;4154906;28;19921;-84
2023/06/08 06:11:08;;;;;;;;;;;11.00;68.00;;;;;;4160216;28;20001;-84
2023/06/08 06:13:31;;;;;;;;;;;11.00;68.30;;;;;;4172478;28;20295;-86
2023/06/08 06:15:52;;;;;;;;;;;11.10;68.50;;;;;;4169921;28;19965;-85
2023/06/08 06:18:13;;;;;;;;;;;11.00;68.30;;;;;;4168638;28;19952;-85
2023/06/08 06:20:36;;;;;;;;;;;11.00;68.70;;;;;;4171100;28;19921;-84
2023/06/08 06:22:57;;;;;;;;;;;11.00;68.50;;;;;;4156919;28;19921;-84
2023/06/08 06:25:18;;;;;;;;;;;11.10;68.50;;;;;;4169986;28;20423;-85
2023/06/08 06:27:40;;;;;;;;;;;11.10;68.60;;;;;;4169382;28;20008;-85
2023/06/08 06:30:04;;;;;;;;;;;11.20;68.90;;;;;;4165196;28;20442;-83
2023/06/08 06:35:20;;;;;;;;;;;11.20;69.10;;;;;;4123975;28;19914;-85
2023/06/08 06:37:57;;;;;;;;;;;11.30;69.20;;;;;;4126758;28;19932;-85
2023/06/08 06:40:20;;;;;;;;;;;11.30;69.10;;;;;;4122272;28;19922;-85
2023/06/08 06:42:41;;;;;;;;;;;11.40;69.20;;;;;;4104677;28;20498;-85
2023/06/08 06:45:01;;;;;;;;;;;11.30;68.90;;;;;;4109272;28;19957;-84
2023/06/08 06:47:22;;;;;;;;;;;11.30;69.30;;;;;;4120923;28;20386;-86
2023/06/08 06:49:43;;;;;;;;;;;11.40;69.30;;;;;;4120411;28;19937;-86
2023/06/08 06:52:04;;;;;;;;;;;11.40;69.20;;;;;;4117431;28;19914;-85
2023/06/08 06:54:25;;;;;;;;;;;11.40;69.30;;;;;;4110268;28;21172;-84
2023/06/08 06:56:46;;;;;;;;;;;11.40;69.50;;;;;;4118698;28;20008;-84
2023/06/08 06:59:06;;;;;;;;;;;11.40;69.40;;;;;;4123704;28;19957;-85
2023/06/08 07:01:27;;;;;;;;;;;11.50;69.40;;;;;;4110419;28;19921;-84
2023/06/08 07:03:48;;;;;;;;;;;11.50;69.40;;;;;;4125001;28;19929;-84
2023/06/08 07:06:10;;;;;;;;;;;11.50;69.50;;;;;;4125583;28;20193;-84
2023/06/08 07:08:30;;;;;;;;;;;11.50;69.70;;;;;;4126326;28;19953;-84
2023/06/08 07:10:51;;;;;;;;;;;11.50;69.70;;;;;;4126273;28;20013;-84
2023/06/08 07:13:12;;;;;;;;;;;11.60;69.90;;;;;;4156209;28;20303;-85
2023/06/08 07:15:38;;;;;;;;;;;11.60;70.00;;;;;;4173997;28;19944;-85
2023/06/08 07:18:02;;;;;;;;;;;11.60;70.00;;;;;;4159593;28;19913;-84
2023/06/08 07:20:25;;;;;;;;;;;11.70;69.90;;;;;;4155987;28;19991;-83
2023/06/08 07:22:49;;;;;;;;;;;11.60;69.90;;;;;;4172754;28;19917;-86
2023/06/08 07:25:10;;;;;;;;;;;11.80;70.00;;;;;;4174570;28;20048;-86
2023/06/08 07:27:31;;;;;;;;;;;11.90;69.80;;;;;;4160827;28;19935;-85
2023/06/08 07:29:52;;;;;;;;;;;11.90;70.00;;;;;;4157765;28;19976;-85
2023/06/08 07:32:13;;;;;;;;;;;11.90;70.10;;;;;;4172641;28;20354;-84
2023/06/08 07:34:35;;;;;;;;;;;12.10;70.30;;;;;;4158102;28;19917;-84
2023/06/08 07:36:55;;;;;;;;;;;12.10;70.40;;;;;;4159260;28;19947;-86
2023/06/08 07:39:16;;;;;;;;;;;12.10;70.80;;;;;;4172561;28;19912;-84
2023/06/08 07:42:21;;;;;;;;;;;12.20;69.90;;;;;;4200047;28;19920;-85
2023/06/08 07:44:42;;;;;;;;;;;12.20;69.80;;;;;;4185897;28;20663;-84
2023/06/08 07:47:03;;;;;;;;;;;12.30;70.10;;;;;;4190253;28;19912;-86
2023/06/08 07:49:24;;;;;;;;;;;12.40;69.80;;;;;;4189749;28;19924;-86
2023/06/08 07:51:48;;;;;;;;;;;12.50;70.10;;;;;;4209423;28;19921;-85
2023/06/08 07:54:09;;;;;;;;;;;12.50;69.70;;;;;;4207704;28;19920;-85
2023/06/08 07:56:29;;;;;;;;;;;12.70;69.90;;;;;;4220718;28;19963;-85
2023/06/08 07:58:50;;;;;;;;;;;12.70;69.90;;;;;;4208725;28;19916;-87
2023/06/08 08:01:11;;;;;;;;;;;12.80;69.90;;;;;;4221696;28;19935;-85
2023/06/08 08:03:37;;;;;;;;;;;12.90;70.20;;;;;;4226646;28;19990;-85
2023/06/08 08:05:57;;;;;;;;;;;13.00;70.20;;;;;;4221451;28;19912;-85
2023/06/08 08:08:18;;;;;;;;;;;13.20;70.20;;;;;;4222967;28;19922;-86
2023/06/08 08:10:39;;;;;;;;;;;13.30;70.00;;;;;;4207817;28;20604;-86
2023/06/08 08:13:00;;;;;;;;;;;13.40;69.90;;;;;;4222529;28;19981;-84
2023/06/08 08:15:22;;;;;;;;;;;13.50;69.90;;;;;;4225218;28;19916;-86
2023/06/08 08:17:43;;;;;;;;;;;13.60;69.90;;;;;;4223356;28;19920;-85
2023/06/08 08:20:04;;;;;;;;;;;13.70;69.80;;;;;;4223421;28;19938;-85
2023/06/08 08:22:58;;;;;;;;;;;13.90;69.80;;;;;;4207182;28;19939;-85
2023/06/08 08:25:19;;;;;;;;;;;14.00;69.40;;;;;;4233504;27;19920;-84
2023/06/08 08:27:40;;;;;;;;;;;14.10;68.70;;;;;;4221721;28;19919;-86
2023/06/08 08:30:03;;;;;;;;;;;14.20;68.70;;;;;;4218268;28;20404;-87
2023/06/08 08:32:27;;;;;;;;;;;14.40;68.80;;;;;;4221665;28;19917;-86
2023/06/08 08:34:50;;;;;;;;;;;14.50;68.30;;;;;;4208582;28;19928;-86
2023/06/08 08:37:11;;;;;;;;;;;14.70;67.00;;;;;;4220817;28;19949;-85
2023/06/08 08:39:32;;;;;;;;;;;14.80;67.60;;;;;;4205941;28;19994;-85
2023/06/08 08:41:56;;;;;;;;;;;14.90;67.00;;;;;;4209766;28;20381;-85
2023/06/08 08:44:17;;;;;;;;;;;15.10;67.30;;;;;;4224617;28;19971;-86
2023/06/08 08:46:39;;;;;;;;;;;15.10;66.80;;;;;;4209091;28;21664;-85
2023/06/08 08:49:04;;;;;;;;;;;15.20;66.60;;;;;;4223636;28;19915;-84
2023/06/08 08:51:25;;;;;;;;;;;15.40;65.50;;;;;;4207478;28;19916;-85
2023/06/08 08:53:47;;;;;;;;;;;15.50;65.10;;;;;;4214902;28;20323;-86
2023/06/08 08:56:09;;;;;;;;;;;15.70;65.20;;;;;;4214839;28;19920;-85
2023/06/08 08:58:30;;;;;;;;;;;15.80;64.10;;;;;;4212887;28;19920;-88
2023/06/08 09:00:51;;;;;;;;;;;15.90;64.10;;;;;;4206262;28;20225;-85
2023/06/08 09:03:18;;;;;;;;;;;16.00;63.20;;;;;;4198966;28;19916;-85
2023/06/08 09:05:38;;;;;;;;;;;16.10;63.30;;;;;;4209568;28;20605;-85
2023/06/08 09:07:59;;;;;;;;;;;16.30;62.90;;;;;;4211154;28;19920;-85
2023/06/08 09:10:22;;;;;;;;;;;16.40;61.40;;;;;;4212910;28;19920;-86
2023/06/08 09:15:46;;;;;;;;;;;16.60;61.50;;;;;;4119525;28;19949;-86
2023/06/08 09:18:17;;;;;;;;;;;16.70;60.50;;;;;;4114358;28;20007;-86
2023/06/08 09:20:38;;;;;;;;;;;16.80;59.60;;;;;;4122212;28;20060;-86
2023/06/08 09:23:26;;;;;;;;;;;17.00;60.10;;;;;;4115908;28;20769;-86
2023/06/08 09:25:47;;;;;;;;;;;17.00;60.10;;;;;;4116222;28;19922;-86
2023/06/08 09:28:15;;;;;;;;;;;17.20;60.10;;;;;;4112054;28;20621;-85
2023/06/08 09:30:36;;;;;;;;;;;17.30;59.30;;;;;;4114454;28;20420;-87
2023/06/08 09:32:58;;;;;;;;;;;17.40;59.40;;;;;;4113131;28;19924;-85
2023/06/08 09:35:23;;;;;;;;;;;17.50;59.60;;;;;;4111740;28;19960;-88
2023/06/08 09:37:45;;;;;;;;;;;17.60;59.30;;;;;;4115492;28;19925;-88
2023/06/08 09:40:08;;;;;;;;;;;17.70;59.00;;;;;;4112888;28;20404;-87
2023/06/08 09:42:40;;;;;;;;;;;17.90;58.90;;;;;;4111854;28;19921;-87
2023/06/08 09:45:08;;;;;;;;;;;18.00;58.40;;;;;;4115381;28;20532;-87
2023/06/08 09:47:29;;;;;;;;;;;18.10;59.00;;;;;;4113309;28;19953;-85
2023/06/08 09:49:51;;;;;;;;;;;18.30;58.50;;;;;;4113214;28;19914;-87
2023/06/08 09:52:12;;;;;;;;;;;18.50;57.90;;;;;;4150640;28;20311;-86
2023/06/08 09:54:34;;;;;;;;;;;18.50;58.20;;;;;;4214131;28;19931;-88
2023/06/08 09:56:56;;;;;;;;;;;18.60;58.20;;;;;;4205839;28;19908;-87
2023/06/08 09:59:17;;;;;;;;;;;18.80;58.20;;;;;;4192959;28;19963;-85
2023/06/08 10:01:41;;;;;;;;;;;18.90;57.80;;;;;;4206292;28;19966;-86
2023/06/08 10:04:06;;;;;;;;;;;19.00;57.40;;;;;;4194874;28;19916;-87
2023/06/08 10:06:28;;;;;;;;;;;19.10;57.00;;;;;;4208014;28;20857;-86
2023/06/08 10:08:51;;;;;;;;;;;19.20;57.00;;;;;;4193191;28;19920;-85
2023/06/08 10:11:13;;;;;;;;;;;19.30;55.30;;;;;;4206660;27;19967;-88
2023/06/08 10:13:38;;;;;;;;;;;19.50;56.20;;;;;;4211055;28;20434;-86
2023/06/08 10:15:59;;;;;;;;;;;19.60;56.00;;;;;;4211791;28;19984;-89
2023/06/08 10:18:21;;;;;;;;;;;19.70;54.80;;;;;;4223787;28;20348;-90
2023/06/08 10:20:41;;;;;;;;;;;19.80;54.90;;;;;;4207757;28;19939;-86
2023/06/08 10:23:03;;;;;;;;;;;19.90;54.70;;;;;;4203797;28;19927;-87
2023/06/08 10:25:27;;;;;;;;;;;19.90;53.30;;;;;;4208977;28;19915;-85
2023/06/08 10:27:49;;;;;;;;;;;20.00;53.20;;;;;;4193985;28;19994;-87
2023/06/08 10:30:10;;;;;;;;;;;20.10;52.90;;;;;;4209668;28;20436;-88
2023/06/08 10:32:32;;;;;;;;;;;20.20;52.50;;;;;;4212236;28;20304;-87
2023/06/08 10:34:56;;;;;;;;;;;20.20;52.80;;;;;;4193761;28;19919;-88
2023/06/08 10:37:30;;;;;;;;;;;20.30;51.80;;;;;;4206570;28;19923;-87
2023/06/08 10:39:50;;;;;;;;;;;20.40;51.00;;;;;;4203246;28;20832;-87
2023/06/08 10:42:31;;;;;;;;;;;20.40;50.80;;;;;;4192962;28;20739;-86
2023/06/08 10:48:25;;;;;;;;;;;20.70;50.50;;;;;;4136658;28;19995;-87
2023/06/08 10:50:51;;;;;;;;;;;20.70;50.10;;;;;;4123763;28;20478;-88
2023/06/08 10:53:21;;;;;;;;;;;20.90;50.70;;;;;;4124288;28;19936;-87
2023/06/08 10:55:48;;;;;;;;;;;20.90;50.20;;;;;;4137564;28;19921;-86
2023/06/08 10:58:19;;;;;;;;;;;21.00;50.90;;;;;;4137539;28;19952;-86
2023/06/08 11:00:43;;;;;;;;;;;21.10;50.20;;;;;;4136594;28;20601;-87
2023/06/08 11:03:05;;;;;;;;;;;21.20;49.70;;;;;;4127067;28;20031;-88
2023/06/08 11:05:33;;;;;;;;;;;21.30;48.80;;;;;;4123479;28;19957;-86
2023/06/08 11:07:56;;;;;;;;;;;21.40;49.40;;;;;;4123952;28;20416;-86
2023/06/08 11:10:25;;;;;;;;;;;21.50;50.00;;;;;;4134514;28;19917;-86
2023/06/08 11:12:46;;;;;;;;;;;21.70;49.80;;;;;;4135786;28;20354;-89
2023/06/08 11:15:23;;;;;;;;;;;21.70;49.50;;;;;;4125388;28;19917;-87
2023/06/08 11:17:52;;;;;;;;;;;21.80;49.40;;;;;;4137303;28;20009;-87
2023/06/08 11:20:16;;;;;;;;;;;21.80;48.40;;;;;;4124202;28;19920;-87
2023/06/08 11:22:40;;;;;;;;;;;21.90;47.20;;;;;;4139637;28;19925;-87
2023/06/08 11:25:04;;;;;;;;;;;22.10;47.90;;;;;;4179487;28;20070;-85
2023/06/08 11:27:25;;;;;;;;;;;22.10;45.40;;;;;;4207830;28;19958;-85
2023/06/08 11:29:46;;;;;;;;;;;22.10;47.10;;;;;;4189625;28;19962;-86
2023/06/08 11:32:11;;;;;;;;;;;22.20;46.70;;;;;;4188939;28;19912;-86
2023/06/08 11:34:32;;;;;;;;;;;22.20;45.60;;;;;;4190099;28;20026;-89
2023/06/08 11:36:59;;;;;;;;;;;22.30;45.80;;;;;;4191858;28;19943;-88
2023/06/08 11:39:20;;;;;;;;;;;22.40;44.30;;;;;;4193180;28;20170;-87
2023/06/08 11:41:50;;;;;;;;;;;22.40;45.10;;;;;;4195598;28;20404;-88
2023/06/08 11:44:12;;;;;;;;;;;22.50;44.40;;;;;;4206906;28;19987;-87
2023/06/08 11:46:33;;;;;;;;;;;22.50;42.80;;;;;;4208494;28;19919;-86
2023/06/08 11:49:05;;;;;;;;;;;22.50;43.80;;;;;;4206789;28;19923;-86
2023/06/08 11:51:43;;;;;;;;;;;22.50;44.00;;;;;;4190860;28;19938;-88
2023/06/08 11:54:07;;;;;;;;;;;22.60;43.80;;;;;;4186881;28;20028;-89
2023/06/08 11:56:31;;;;;;;;;;;22.70;44.20;;;;;;4188020;28;19912;-85
2023/06/08 11:58:53;;;;;;;;;;;22.70;43.40;;;;;;4206436;28;19911;-87
2023/06/08 12:01:14;;;;;;;;;;;22.80;42.60;;;;;;4191312;28;19959;-88
2023/06/08 12:03:45;;;;;;;;;;;22.80;41.30;;;;;;4203093;28;20018;-84
2023/06/08 12:06:05;;;;;;;;;;;22.80;40.30;;;;;;4204570;28;19920;-88
2023/06/08 12:08:26;;;;;;;;;;;22.90;36.30;;;;;;4194715;28;20290;-87
2023/06/08 12:10:47;;;;;;;;;;;22.90;40.90;;;;;;4202566;28;19916;-88
2023/06/08 12:13:15;;;;;;;;;;;23.00;40.20;;;;;;4201617;28;19935;-88
2023/06/08 12:15:37;;;;;;;;;;;23.00;41.30;;;;;;4204377;28;20433;-86
2023/06/08 12:18:00;;;;;;;;;;;23.10;40.70;;;;;;4206982;28;19916;-87
2023/06/08 12:20:21;;;;;;;;;;;23.20;40.60;;;;;;4188064;28;20174;-88
2023/06/08 12:22:44;;;;;;;;;;;23.20;40.80;;;;;;4193300;28;19928;-85
2023/06/08 12:25:08;;;;;;;;;;;23.30;40.80;;;;;;4206080;28;19927;-87
2023/06/08 12:27:35;;;;;;;;;;;23.40;39.40;;;;;;4185013;28;19931;-86
2023/06/08 12:29:56;;;;;;;;;;;23.40;36.60;;;;;;4190241;28;20035;-87
2023/06/08 12:32:20;;;;;;;;;;;23.50;39.60;;;;;;4191313;28;19912;-87
2023/06/08 12:35:09;;;;;;;;;;;;;;;;;;;;;
2023/06/08 12:37:33;;;;;;;;;;;23.60;35.80;;;;;;4207578;28;20034;-86
2023/06/08 12:39:54;;;;;;;;;;;23.70;36.80;;;;;;4196328;28;19927;-87
2023/06/08 12:42:15;;;;;;;;;;;23.70;35.90;;;;;;4204882;28;20568;-86
2023/06/08 12:44:36;;;;;;;;;;;23.70;36.90;;;;;;4211564;28;20495;-86
2023/06/08 12:46:56;;;;;;;;;;;23.70;35.90;;;;;;4208290;28;20323;-85
2023/06/08 12:49:17;;;;;;;;;;;23.70;36.90;;;;;;4192168;28;20473;-87
2023/06/08 12:51:38;;;;;;;;;;;23.70;36.50;;;;;;4190682;28;20105;-88
2023/06/08 12:53:59;;;;;;;;;;;23.80;36.60;;;;;;4202660;28;19993;-85
2023/06/08 12:56:23;;;;;;;;;;;23.80;33.20;;;;;;4201024;28;19916;-87
2023/06/08 12:59:26;;;;;;;;;;;23.80;35.20;;;;;;4197588;28;19916;-86
2023/06/08 13:02:08;;;;;;;;;;;23.80;34.50;;;;;;4211986;28;19919;-86
2023/06/08 13:04:29;;;;;;;;;;;23.90;35.00;;;;;;4198777;28;20055;-87
2023/06/08 13:06:51;;;;;;;;;;;23.90;35.40;;;;;;4208028;28;19957;-85
2023/06/08 13:09:24;;;;;;;;;;;23.90;34.50;;;;;;4192370;28;19930;-85
2023/06/08 13:12:25;;;;;;;;;;;23.90;34.50;;;;;;4197976;28;19920;-86
2023/06/08 13:15:02;;;;;;;;;;;24.00;34.50;;;;;;4140100;28;20393;-86
2023/06/08 13:17:41;;;;;;;;;;;24.10;34.50;;;;;;4158469;28;20647;-86
2023/06/08 13:20:03;;;;;;;;;;;24.10;33.00;;;;;;4156598;28;19923;-86
2023/06/08 13:22:24;;;;;;;;;;;24.10;34.50;;;;;;4155344;28;19921;-84
2023/06/08 13:24:45;;;;;;;;;;;24.10;35.00;;;;;;4144014;28;19918;-84
2023/06/08 13:27:38;;;;;;;;;;;24.20;35.00;;;;;;4156659;28;19921;-85
2023/06/08 13:30:02;;;;;;;;;;;24.20;33.70;;;;;;4110176;28;19922;-86
2023/06/08 13:32:23;;;;;;;;;;;24.20;33.70;;;;;;4121496;28;19922;-86
2023/06/08 13:34:44;;;;;;;;;;;24.20;34.00;;;;;;4104259;28;19987;-86
2023/06/08 13:37:05;;;;;;;;;;;24.30;34.20;;;;;;4103194;28;19933;-87
2023/06/08 13:39:26;;;;;;;;;;;24.30;33.60;;;;;;4104901;28;19927;-85
2023/06/08 13:41:47;;;;;;;;;;;24.30;34.50;;;;;;4106932;28;19918;-87
2023/06/08 13:44:08;;;;;;;;;;;24.30;34.80;;;;;;4105919;28;19914;-86
2023/06/08 13:46:32;;;;;;;;;;;24.30;33.80;;;;;;4091660;28;20471;-85
2023/06/08 13:48:53;;;;;;;;;;;24.30;33.70;;;;;;4102173;28;19921;-85
2023/06/08 13:53:17;;;;;;;;;;;24.40;33.80;;;;;;4165256;28;19940;-82
2023/06/08 13:55:38;;;;;;;;;;;24.40;33.50;;;;;;4168741;28;20465;-81
2023/06/08 13:57:59;;;;;;;;;;;24.40;34.20;;;;;;4164773;28;19924;-82
2023/06/08 14:00:20;;;;;;;;;;;24.40;33.00;;;;;;4172422;28;19920;-81
2023/06/08 14:02:47;;;;;;;;;;;24.40;33.40;;;;;;4164967;28;19921;-82
2023/06/08 14:05:08;;;;;;;;;;;24.40;33.50;;;;;;4169245;28;19921;-82
2023/06/08 14:07:29;;;;;;;;;;;24.40;33.50;;;;;;4164251;28;19925;-82